sensor_id;sensor_type;location;lat;lon;timestamp;pressure;altitude;pressure_sealevel;temperature;humidity
45813;BME280;31519;45.408;10.962;2023-05-20T00:00:32;100812.97;;;20.10;64.53
45813;BME280;31519;45.408;10.962;2023-05-20T00:03:16;100812.78;;;20.22;64.74
45813;BME280;31519;45.408;10.962;2023-05-20T00:05:45;100810.78;;;20.19;65.15
45813;BME280;31519;45.408;10.962;2023-05-20T00:08:14;100812.84;;;20.25;64.37
45813;BME280;31519;45.408;10.962;2023-05-20T00:10:42;100811.59;;;20.19;64.69
45813;BME280;31519;45.408;10.962;2023-05-20T00:13:11;100809.28;;;20.21;64.08
45813;BME280;31519;45.408;10.962;2023-05-20T00:15:39;100805.97;;;20.09;64.18
45813;BME280;31519;45.408;10.962;2023-05-20T00:18:07;100801.78;;;20.11;64.07
45813;BME280;31519;45.408;10.962;2023-05-20T00:20:36;100802.97;;;20.14;64.22
45813;BME280;31519;45.408;10.962;2023-05-20T00:23:04;100804.72;;;20.25;63.61
45813;BME280;31519;45.408;10.962;2023-05-20T00:25:33;100803.41;;;20.16;63.50
45813;BME280;31519;45.408;10.962;2023-05-20T00:28:01;100799.31;;;20.25;63.53
45813;BME280;31519;45.408;10.962;2023-05-20T00:30:30;100796.84;;;20.17;62.72
45813;BME280;31519;45.408;10.962;2023-05-20T00:32:58;100792.88;;;20.11;62.65
45813;BME280;31519;45.408;10.962;2023-05-20T00:35:26;100786.88;;;20.21;62.37
45813;BME280;31519;45.408;10.962;2023-05-20T00:37:55;100786.94;;;20.24;62.06
45813;BME280;31519;45.408;10.962;2023-05-20T00:40:23;100789.50;;;20.17;61.77
45813;BME280;31519;45.408;10.962;2023-05-20T00:42:52;100773.72;;;20.19;61.51
45813;BME280;31519;45.408;10.962;2023-05-20T00:45:20;100777.00;;;20.09;61.77
45813;BME280;31519;45.408;10.962;2023-05-20T00:47:49;100776.25;;;20.31;61.03
45813;BME280;31519;45.408;10.962;2023-05-20T00:50:18;100771.22;;;20.30;61.34
45813;BME280;31519;45.408;10.962;2023-05-20T00:52:46;100773.75;;;20.23;61.68
45813;BME280;31519;45.408;10.962;2023-05-20T00:55:18;100774.31;;;20.32;61.28
45813;BME280;31519;45.408;10.962;2023-05-20T00:57:48;100775.53;;;20.34;60.96
45813;BME280;31519;45.408;10.962;2023-05-20T01:00:17;100772.03;;;20.11;60.91
45813;BME280;31519;45.408;10.962;2023-05-20T01:02:45;100779.78;;;20.35;60.97
45813;BME280;31519;45.408;10.962;2023-05-20T01:05:14;100776.38;;;20.39;61.18
45813;BME280;31519;45.408;10.962;2023-05-20T01:07:43;100776.06;;;20.44;60.70
45813;BME280;31519;45.408;10.962;2023-05-20T01:10:11;100774.69;;;20.30;60.81
45813;BME280;31519;45.408;10.962;2023-05-20T01:12:47;100764.16;;;20.25;60.48
45813;BME280;31519;45.408;10.962;2023-05-20T01:15:17;100763.06;;;20.53;60.13
45813;BME280;31519;45.408;10.962;2023-05-20T01:17:50;100765.06;;;20.59;60.05
45813;BME280;31519;45.408;10.962;2023-05-20T01:20:20;100757.47;;;20.42;60.39
45813;BME280;31519;45.408;10.962;2023-05-20T01:22:52;100756.34;;;20.43;61.01
45813;BME280;31519;45.408;10.962;2023-05-20T01:25:21;100753.16;;;20.15;60.87
45813;BME280;31519;45.408;10.962;2023-05-20T01:27:51;100745.00;;;20.34;61.13
45813;BME280;31519;45.408;10.962;2023-05-20T01:30:19;100740.78;;;20.37;61.04
45813;BME280;31519;45.408;10.962;2023-05-20T01:33:05;100737.22;;;20.32;60.93
45813;BME280;31519;45.408;10.962;2023-05-20T01:35:35;100739.72;;;20.45;60.53
45813;BME280;31519;45.408;10.962;2023-05-20T01:38:04;100743.59;;;20.44;60.88
45813;BME280;31519;45.408;10.962;2023-05-20T01:40:34;100745.06;;;20.67;59.79
45813;BME280;31519;45.408;10.962;2023-05-20T01:43:03;100740.72;;;20.59;59.85
45813;BME280;31519;45.408;10.962;2023-05-20T01:45:32;100743.66;;;20.77;59.71
45813;BME280;31519;45.408;10.962;2023-05-20T01:48:01;100744.75;;;20.72;60.33
45813;BME280;31519;45.408;10.962;2023-05-20T01:50:29;100736.56;;;20.65;59.60
45813;BME280;31519;45.408;10.962;2023-05-20T01:52:58;100729.88;;;20.59;60.79
45813;BME280;31519;45.408;10.962;2023-05-20T01:55:26;100720.44;;;20.46;61.05
45813;BME280;31519;45.408;10.962;2023-05-20T01:57:55;100718.50;;;20.47;61.30
45813;BME280;31519;45.408;10.962;2023-05-20T02:00:23;100716.41;;;20.63;60.66
45813;BME280;31519;45.408;10.962;2023-05-20T02:02:51;100713.44;;;20.71;59.95
45813;BME280;31519;45.408;10.962;2023-05-20T02:05:19;100709.66;;;20.50;60.70
45813;BME280;31519;45.408;10.962;2023-05-20T02:07:48;100711.59;;;20.26;60.16
45813;BME280;31519;45.408;10.962;2023-05-20T02:10:16;100713.09;;;20.47;60.20
45813;BME280;31519;45.408;10.962;2023-05-20T02:12:46;100699.91;;;20.45;60.00
45813;BME280;31519;45.408;10.962;2023-05-20T02:15:16;100701.91;;;20.48;59.86
45813;BME280;31519;45.408;10.962;2023-05-20T02:17:45;100700.53;;;20.61;59.42
45813;BME280;31519;45.408;10.962;2023-05-20T02:20:14;100702.00;;;20.55;59.68
45813;BME280;31519;45.408;10.962;2023-05-20T02:22:43;100699.34;;;20.59;59.39
45813;BME280;31519;45.408;10.962;2023-05-20T02:25:11;100698.63;;;20.62;58.72
45813;BME280;31519;45.408;10.962;2023-05-20T02:27:39;100701.41;;;20.69;58.41
45813;BME280;31519;45.408;10.962;2023-05-20T02:30:08;100695.84;;;20.58;58.91
45813;BME280;31519;45.408;10.962;2023-05-20T02:32:37;100697.91;;;20.68;58.88
45813;BME280;31519;45.408;10.962;2023-05-20T02:35:06;100695.84;;;20.58;58.82
45813;BME280;31519;45.408;10.962;2023-05-20T02:37:34;100696.22;;;20.57;58.98
45813;BME280;31519;45.408;10.962;2023-05-20T02:40:03;100697.53;;;20.40;59.45
45813;BME280;31519;45.408;10.962;2023-05-20T02:42:32;100695.25;;;20.72;58.67
45813;BME280;31519;45.408;10.962;2023-05-20T02:45:00;100690.81;;;20.57;58.60
45813;BME280;31519;45.408;10.962;2023-05-20T02:47:29;100691.53;;;20.54;58.95
45813;BME280;31519;45.408;10.962;2023-05-20T02:49:57;100692.81;;;20.63;58.05
45813;BME280;31519;45.408;10.962;2023-05-20T02:52:26;100679.69;;;20.62;58.25
45813;BME280;31519;45.408;10.962;2023-05-20T02:54:54;100679.78;;;20.72;57.47
45813;BME280;31519;45.408;10.962;2023-05-20T02:57:23;100674.44;;;20.76;57.88
45813;BME280;31519;45.408;10.962;2023-05-20T02:59:54;100673.53;;;20.65;58.31
45813;BME280;31519;45.408;10.962;2023-05-20T03:02:23;100674.47;;;20.79;58.02
45813;BME280;31519;45.408;10.962;2023-05-20T03:04:51;100667.25;;;20.57;58.37
45813;BME280;31519;45.408;10.962;2023-05-20T03:07:22;100662.72;;;20.68;58.52
45813;BME280;31519;45.408;10.962;2023-05-20T03:09:50;100664.34;;;20.73;57.94
45813;BME280;31519;45.408;10.962;2023-05-20T03:12:19;100665.91;;;20.74;57.82
45813;BME280;31519;45.408;10.962;2023-05-20T03:14:47;100662.63;;;20.91;57.18
45813;BME280;31519;45.408;10.962;2023-05-20T03:17:15;100667.22;;;20.87;57.85
45813;BME280;31519;45.408;10.962;2023-05-20T03:19:44;100668.19;;;20.72;58.36
45813;BME280;31519;45.408;10.962;2023-05-20T03:22:13;100661.84;;;20.57;57.89
45813;BME280;31519;45.408;10.962;2023-05-20T03:24:41;100658.66;;;20.52;58.30
45813;BME280;31519;45.408;10.962;2023-05-20T03:27:13;100662.22;;;20.59;58.99
45813;BME280;31519;45.408;10.962;2023-05-20T03:29:41;100659.84;;;20.54;58.73
45813;BME280;31519;45.408;10.962;2023-05-20T03:32:10;100659.66;;;20.70;57.97
45813;BME280;31519;45.408;10.962;2023-05-20T03:34:38;100654.53;;;20.61;58.53
45813;BME280;31519;45.408;10.962;2023-05-20T03:37:07;100651.91;;;20.68;59.24
45813;BME280;31519;45.408;10.962;2023-05-20T03:39:35;100650.22;;;20.57;59.94
45813;BME280;31519;45.408;10.962;2023-05-20T03:42:04;100653.59;;;20.50;59.49
45813;BME280;31519;45.408;10.962;2023-05-20T03:44:32;100649.41;;;20.53;60.02
45813;BME280;31519;45.408;10.962;2023-05-20T03:47:02;100654.06;;;20.56;60.60
45813;BME280;31519;45.408;10.962;2023-05-20T03:49:31;100652.22;;;20.63;60.87
45813;BME280;31519;45.408;10.962;2023-05-20T03:51:59;100655.13;;;20.48;63.50
45813;BME280;31519;45.408;10.962;2023-05-20T03:54:28;100662.03;;;20.45;63.58
45813;BME280;31519;45.408;10.962;2023-05-20T03:56:59;100659.38;;;20.22;64.49
45813;BME280;31519;45.408;10.962;2023-05-20T03:59:28;100658.53;;;19.92;66.76
45813;BME280;31519;45.408;10.962;2023-05-20T04:01:56;100647.84;;;19.54;68.22
45813;BME280;31519;45.408;10.962;2023-05-20T04:04:25;100650.78;;;19.90;68.23
45813;BME280;31519;45.408;10.962;2023-05-20T04:06:53;100652.63;;;19.60;68.65
45813;BME280;31519;45.408;10.962;2023-05-20T04:09:24;100647.44;;;19.74;68.88
45813;BME280;31519;45.408;10.962;2023-05-20T04:11:52;100652.41;;;19.72;70.27
45813;BME280;31519;45.408;10.962;2023-05-20T04:14:20;100651.59;;;19.68;70.59
45813;BME280;31519;45.408;10.962;2023-05-20T04:16:49;100644.25;;;19.46;72.69
45813;BME280;31519;45.408;10.962;2023-05-20T04:19:18;100639.13;;;19.41;73.50
45813;BME280;31519;45.408;10.962;2023-05-20T04:21:46;100644.47;;;19.37;73.77
45813;BME280;31519;45.408;10.962;2023-05-20T04:24:15;100649.38;;;19.74;72.54
45813;BME280;31519;45.408;10.962;2023-05-20T04:26:44;100650.56;;;19.34;73.99
45813;BME280;31519;45.408;10.962;2023-05-20T04:29:12;100641.53;;;19.04;75.96
45813;BME280;31519;45.408;10.962;2023-05-20T04:31:46;100641.59;;;19.08;76.99
45813;BME280;31519;45.408;10.962;2023-05-20T04:34:15;100642.97;;;19.40;75.70
45813;BME280;31519;45.408;10.962;2023-05-20T04:36:47;100649.03;;;19.33;76.60
45813;BME280;31519;45.408;10.962;2023-05-20T04:39:15;100644.72;;;19.29;76.92
45813;BME280;31519;45.408;10.962;2023-05-20T04:41:51;100648.28;;;19.14;77.16
45813;BME280;31519;45.408;10.962;2023-05-20T04:44:22;100651.03;;;19.59;75.91
45813;BME280;31519;45.408;10.962;2023-05-20T04:46:51;100642.44;;;19.76;76.19
45813;BME280;31519;45.408;10.962;2023-05-20T04:49:20;100636.53;;;19.93;74.01
45813;BME280;31519;45.408;10.962;2023-05-20T04:51:48;100637.25;;;19.90;75.28
45813;BME280;31519;45.408;10.962;2023-05-20T04:54:18;100634.91;;;19.89;75.42
45813;BME280;31519;45.408;10.962;2023-05-20T04:56:47;100628.63;;;20.08;75.47
45813;BME280;31519;45.408;10.962;2023-05-20T04:59:15;100624.66;;;19.98;75.71
45813;BME280;31519;45.408;10.962;2023-05-20T05:01:44;100621.59;;;20.03;74.45
45813;BME280;31519;45.408;10.962;2023-05-20T05:04:12;100618.25;;;20.10;74.62
45813;BME280;31519;45.408;10.962;2023-05-20T05:06:41;100617.69;;;19.97;75.60
45813;BME280;31519;45.408;10.962;2023-05-20T05:09:10;100614.53;;;20.21;73.85
45813;BME280;31519;45.408;10.962;2023-05-20T05:11:42;100610.94;;;20.14;73.73
45813;BME280;31519;45.408;10.962;2023-05-20T05:14:10;100614.13;;;20.19;74.25
45813;BME280;31519;45.408;10.962;2023-05-20T05:16:39;100609.97;;;20.25;74.86
45813;BME280;31519;45.408;10.962;2023-05-20T05:19:07;100606.34;;;20.44;73.40
45813;BME280;31519;45.408;10.962;2023-05-20T05:21:38;100598.38;;;20.55;73.23
45813;BME280;31519;45.408;10.962;2023-05-20T05:24:06;100590.22;;;20.51;73.29
45813;BME280;31519;45.408;10.962;2023-05-20T05:26:36;100602.28;;;20.57;74.10
45813;BME280;31519;45.408;10.962;2023-05-20T05:29:04;100592.50;;;20.49;74.93
45813;BME280;31519;45.408;10.962;2023-05-20T05:31:33;100598.19;;;20.70;74.48
45813;BME280;31519;45.408;10.962;2023-05-20T05:34:01;100597.56;;;20.51;75.29
45813;BME280;31519;45.408;10.962;2023-05-20T05:36:32;100580.63;;;20.57;76.79
45813;BME280;31519;45.408;10.962;2023-05-20T05:39:01;100584.81;;;20.51;76.11
45813;BME280;31519;45.408;10.962;2023-05-20T05:41:29;100582.50;;;20.53;76.35
45813;BME280;31519;45.408;10.962;2023-05-20T05:43:58;100579.81;;;20.27;76.29
45813;BME280;31519;45.408;10.962;2023-05-20T05:46:28;100579.91;;;20.30;76.69
45813;BME280;31519;45.408;10.962;2023-05-20T05:48:56;100581.69;;;20.49;76.08
45813;BME280;31519;45.408;10.962;2023-05-20T05:51:26;100575.94;;;20.24;77.58
45813;BME280;31519;45.408;10.962;2023-05-20T05:53:57;100587.91;;;20.23;79.24
45813;BME280;31519;45.408;10.962;2023-05-20T05:56:26;100579.88;;;20.01;80.94
45813;BME280;31519;45.408;10.962;2023-05-20T05:58:57;100582.44;;;20.20;80.90
45813;BME280;31519;45.408;10.962;2023-05-20T06:01:25;100583.41;;;20.05;82.13
45813;BME280;31519;45.408;10.962;2023-05-20T06:03:53;100581.41;;;19.75;84.33
45813;BME280;31519;45.408;10.962;2023-05-20T06:06:22;100583.41;;;20.05;83.39
45813;BME280;31519;45.408;10.962;2023-05-20T06:08:50;100578.44;;;20.37;82.20
45813;BME280;31519;45.408;10.962;2023-05-20T06:11:19;100586.97;;;20.12;83.91
45813;BME280;31519;45.408;10.962;2023-05-20T06:13:49;100585.97;;;20.24;82.70
45813;BME280;31519;45.408;10.962;2023-05-20T06:16:17;100580.81;;;20.12;79.06
45813;BME280;31519;45.408;10.962;2023-05-20T06:18:46;100583.63;;;20.22;77.19
45813;BME280;31519;45.408;10.962;2023-05-20T06:21:15;100584.94;;;20.32;73.99
45813;BME280;31519;45.408;10.962;2023-05-20T06:23:43;100589.38;;;20.44;73.12
45813;BME280;31519;45.408;10.962;2023-05-20T06:26:13;100586.50;;;20.33;70.42
45813;BME280;31519;45.408;10.962;2023-05-20T06:28:42;100597.72;;;20.65;70.34
45813;BME280;31519;45.408;10.962;2023-05-20T06:31:10;100596.63;;;20.69;69.29
45813;BME280;31519;45.408;10.962;2023-05-20T06:33:39;100593.38;;;20.57;71.32
45813;BME280;31519;45.408;10.962;2023-05-20T06:36:11;100595.38;;;20.63;71.12
45813;BME280;31519;45.408;10.962;2023-05-20T06:38:40;100592.72;;;20.67;71.64
45813;BME280;31519;45.408;10.962;2023-05-20T06:41:09;100595.72;;;20.58;70.55
45813;BME280;31519;45.408;10.962;2023-05-20T06:43:37;100585.69;;;20.96;69.60
45813;BME280;31519;45.408;10.962;2023-05-20T06:46:29;100589.75;;;21.12;68.13
45813;BME280;31519;45.408;10.962;2023-05-20T06:49:15;100592.09;;;21.14;69.36
45813;BME280;31519;45.408;10.962;2023-05-20T06:51:44;100601.03;;;21.18;69.44
45813;BME280;31519;45.408;10.962;2023-05-20T06:54:13;100592.78;;;21.07;69.65
45813;BME280;31519;45.408;10.962;2023-05-20T06:56:43;100597.81;;;21.09;69.34
45813;BME280;31519;45.408;10.962;2023-05-20T06:59:11;100596.38;;;21.18;66.62
45813;BME280;31519;45.408;10.962;2023-05-20T07:01:39;100598.41;;;21.25;66.40
45813;BME280;31519;45.408;10.962;2023-05-20T07:04:08;100597.31;;;21.33;66.30
45813;BME280;31519;45.408;10.962;2023-05-20T07:06:36;100600.78;;;21.34;67.98
45813;BME280;31519;45.408;10.962;2023-05-20T07:09:04;100602.72;;;21.33;68.99
45813;BME280;31519;45.408;10.962;2023-05-20T07:11:33;100601.09;;;21.21;69.63
45813;BME280;31519;45.408;10.962;2023-05-20T07:14:01;100601.97;;;21.36;68.92
45813;BME280;31519;45.408;10.962;2023-05-20T07:16:31;100607.50;;;21.50;68.22
45813;BME280;31519;45.408;10.962;2023-05-20T07:19:02;100610.19;;;21.47;69.48
45813;BME280;31519;45.408;10.962;2023-05-20T07:21:31;100597.84;;;21.49;69.46
45813;BME280;31519;45.408;10.962;2023-05-20T07:24:33;100609.03;;;21.44;68.04
45813;BME280;31519;45.408;10.962;2023-05-20T07:27:04;100598.56;;;21.43;69.02
45813;BME280;31519;45.408;10.962;2023-05-20T07:29:34;100587.81;;;21.53;68.20
45813;BME280;31519;45.408;10.962;2023-05-20T07:32:03;100583.56;;;21.59;68.95
45813;BME280;31519;45.408;10.962;2023-05-20T07:34:34;100582.44;;;21.64;69.76
45813;BME280;31519;45.408;10.962;2023-05-20T07:37:02;100582.00;;;21.55;70.83
45813;BME280;31519;45.408;10.962;2023-05-20T07:39:31;100584.19;;;21.39;72.28
45813;BME280;31519;45.408;10.962;2023-05-20T07:41:59;100590.81;;;21.45;73.59
45813;BME280;31519;45.408;10.962;2023-05-20T07:44:28;100580.81;;;21.49;74.65
45813;BME280;31519;45.408;10.962;2023-05-20T07:46:56;100588.63;;;21.57;73.98
45813;BME280;31519;45.408;10.962;2023-05-20T07:49:25;100585.47;;;21.55;74.21
45813;BME280;31519;45.408;10.962;2023-05-20T07:51:54;100586.28;;;21.59;75.42
45813;BME280;31519;45.408;10.962;2023-05-20T07:54:22;100587.38;;;21.48;77.07
45813;BME280;31519;45.408;10.962;2023-05-20T07:56:52;100573.78;;;21.44;77.02
45813;BME280;31519;45.408;10.962;2023-05-20T07:59:21;100587.34;;;21.44;78.14
45813;BME280;31519;45.408;10.962;2023-05-20T08:01:50;100580.47;;;21.54;77.07
45813;BME280;31519;45.408;10.962;2023-05-20T08:04:20;100582.69;;;21.45;77.89
45813;BME280;31519;45.408;10.962;2023-05-20T08:06:48;100575.50;;;21.66;75.03
45813;BME280;31519;45.408;10.962;2023-05-20T08:09:24;100579.16;;;21.92;73.00
45813;BME280;31519;45.408;10.962;2023-05-20T08:11:55;100588.78;;;21.82;72.60
45813;BME280;31519;45.408;10.962;2023-05-20T08:14:23;100584.97;;;21.90;73.02
45813;BME280;31519;45.408;10.962;2023-05-20T08:16:54;100593.50;;;21.92;70.87
45813;BME280;31519;45.408;10.962;2023-05-20T08:19:22;100593.81;;;21.80;69.15
45813;BME280;31519;45.408;10.962;2023-05-20T08:21:51;100605.00;;;21.72;70.23
45813;BME280;31519;45.408;10.962;2023-05-20T08:24:20;100601.94;;;21.77;67.36
45813;BME280;31519;45.408;10.962;2023-05-20T08:26:49;100604.09;;;21.57;67.35
45813;BME280;31519;45.408;10.962;2023-05-20T08:29:18;100603.41;;;21.67;66.03
45813;BME280;31519;45.408;10.962;2023-05-20T08:31:47;100617.97;;;21.48;65.27
45813;BME280;31519;45.408;10.962;2023-05-20T08:34:17;100624.69;;;21.65;65.37
45813;BME280;31519;45.408;10.962;2023-05-20T08:36:45;100630.25;;;21.35;67.42
45813;BME280;31519;45.408;10.962;2023-05-20T08:39:14;100629.38;;;21.28;68.54
45813;BME280;31519;45.408;10.962;2023-05-20T08:41:45;100630.00;;;21.14;69.35
45813;BME280;31519;45.408;10.962;2023-05-20T08:44:13;100633.31;;;21.34;69.40
45813;BME280;31519;45.408;10.962;2023-05-20T08:46:43;100625.28;;;21.07;70.96
45813;BME280;31519;45.408;10.962;2023-05-20T08:49:12;100633.81;;;21.09;71.07
45813;BME280;31519;45.408;10.962;2023-05-20T08:51:40;100629.66;;;21.15;71.07
45813;BME280;31519;45.408;10.962;2023-05-20T08:54:10;100641.84;;;20.99;72.91
45813;BME280;31519;45.408;10.962;2023-05-20T08:56:39;100636.81;;;21.01;73.62
45813;BME280;31519;45.408;10.962;2023-05-20T08:59:08;100635.94;;;21.27;72.47
45813;BME280;31519;45.408;10.962;2023-05-20T09:01:41;100638.25;;;21.25;73.79
45813;BME280;31519;45.408;10.962;2023-05-20T09:04:10;100630.97;;;21.32;73.86
45813;BME280;31519;45.408;10.962;2023-05-20T09:06:44;100632.94;;;21.35;75.05
45813;BME280;31519;45.408;10.962;2023-05-20T09:09:13;100633.69;;;21.36;74.58
45813;BME280;31519;45.408;10.962;2023-05-20T09:11:42;100637.16;;;21.33;74.86
45813;BME280;31519;45.408;10.962;2023-05-20T09:14:10;100638.44;;;21.46;74.12
45813;BME280;31519;45.408;10.962;2023-05-20T09:16:39;100641.56;;;21.44;73.46
45813;BME280;31519;45.408;10.962;2023-05-20T09:19:09;100646.22;;;21.47;74.16
45813;BME280;31519;45.408;10.962;2023-05-20T09:21:40;100648.28;;;21.64;72.75
45813;BME280;31519;45.408;10.962;2023-05-20T09:24:08;100650.97;;;21.57;73.52
45813;BME280;31519;45.408;10.962;2023-05-20T09:26:37;100646.13;;;21.40;74.00
45813;BME280;31519;45.408;10.962;2023-05-20T09:29:06;100656.97;;;21.81;71.96
45813;BME280;31519;45.408;10.962;2023-05-20T09:31:35;100649.50;;;21.67;72.82
45813;BME280;31519;45.408;10.962;2023-05-20T09:34:05;100643.41;;;21.81;71.71
45813;BME280;31519;45.408;10.962;2023-05-20T09:36:35;100640.72;;;21.88;72.38
45813;BME280;31519;45.408;10.962;2023-05-20T09:39:04;100637.56;;;21.79;71.57
45813;BME280;31519;45.408;10.962;2023-05-20T09:41:56;100639.00;;;22.13;70.34
45813;BME280;31519;45.408;10.962;2023-05-20T09:44:28;100639.56;;;22.40;70.28
45813;BME280;31519;45.408;10.962;2023-05-20T09:46:58;100645.06;;;22.61;69.95
45813;BME280;31519;45.408;10.962;2023-05-20T09:49:28;100643.50;;;22.60;68.20
45813;BME280;31519;45.408;10.962;2023-05-20T09:51:59;100642.69;;;22.49;68.61
45813;BME280;31519;45.408;10.962;2023-05-20T09:54:30;100639.91;;;22.35;69.72
45813;BME280;31519;45.408;10.962;2023-05-20T09:56:59;100640.78;;;22.57;68.98
45813;BME280;31519;45.408;10.962;2023-05-20T09:59:29;100639.22;;;22.55;69.87
45813;BME280;31519;45.408;10.962;2023-05-20T10:01:59;100642.69;;;22.49;69.97
45813;BME280;31519;45.408;10.962;2023-05-20T10:04:28;100636.06;;;22.46;69.60
45813;BME280;31519;45.408;10.962;2023-05-20T10:07:11;100624.50;;;22.57;70.46
45813;BME280;31519;45.408;10.962;2023-05-20T10:10:07;100624.91;;;22.59;70.98
45813;BME280;31519;45.408;10.962;2023-05-20T10:12:50;100621.72;;;22.46;70.84
45813;BME280;31519;45.408;10.962;2023-05-20T10:18:38;100610.63;;;22.76;69.28
45813;BME280;31519;45.408;10.962;2023-05-20T10:21:16;100614.19;;;23.01;68.83
45813;BME280;31519;45.408;10.962;2023-05-20T10:23:44;100609.91;;;22.96;68.86
45813;BME280;31519;45.408;10.962;2023-05-20T10:26:13;100606.06;;;23.08;67.12
45813;BME280;31519;45.408;10.962;2023-05-20T10:28:42;100601.81;;;23.14;66.06
45813;BME280;31519;45.408;10.962;2023-05-20T10:31:19;100607.22;;;23.00;66.83
45813;BME280;31519;45.408;10.962;2023-05-20T10:33:51;100592.06;;;22.99;67.68
45813;BME280;31519;45.408;10.962;2023-05-20T10:36:27;100590.91;;;23.04;65.83
45813;BME280;31519;45.408;10.962;2023-05-20T10:38:58;100595.16;;;22.90;64.30
45813;BME280;31519;45.408;10.962;2023-05-20T10:41:28;100586.97;;;22.87;64.29
45813;BME280;31519;45.408;10.962;2023-05-20T10:44:04;100588.56;;;23.02;63.27
45813;BME280;31519;45.408;10.962;2023-05-20T10:46:33;100583.56;;;23.08;63.87
45813;BME280;31519;45.408;10.962;2023-05-20T10:49:22;100578.91;;;23.19;62.75
45813;BME280;31519;45.408;10.962;2023-05-20T10:51:54;100573.47;;;23.08;64.31
45813;BME280;31519;45.408;10.962;2023-05-20T10:54:23;100571.53;;;23.26;63.22
45813;BME280;31519;45.408;10.962;2023-05-20T10:56:52;100563.75;;;23.25;62.17
45813;BME280;31519;45.408;10.962;2023-05-20T10:59:21;100563.03;;;23.46;62.16
45813;BME280;31519;45.408;10.962;2023-05-20T11:01:49;100568.41;;;23.24;61.86
45813;BME280;31519;45.408;10.962;2023-05-20T11:04:19;100563.41;;;23.58;61.38
45813;BME280;31519;45.408;10.962;2023-05-20T11:06:50;100559.88;;;23.61;61.70
45813;BME280;31519;45.408;10.962;2023-05-20T11:09:22;100549.75;;;23.79;60.42
45813;BME280;31519;45.408;10.962;2023-05-20T11:11:52;100558.38;;;23.50;61.26
45813;BME280;31519;45.408;10.962;2023-05-20T11:14:20;100552.88;;;23.28;60.96
45813;BME280;31519;45.408;10.962;2023-05-20T11:16:52;100556.78;;;23.38;60.41
45813;BME280;31519;45.408;10.962;2023-05-20T11:19:23;100564.13;;;22.95;61.02
45813;BME280;31519;45.408;10.962;2023-05-20T11:21:53;100548.22;;;22.90;60.74
45813;BME280;31519;45.408;10.962;2023-05-20T11:24:25;100545.50;;;22.93;61.03
45813;BME280;31519;45.408;10.962;2023-05-20T11:26:55;100544.34;;;23.16;61.03
45813;BME280;31519;45.408;10.962;2023-05-20T11:29:25;100534.25;;;23.02;61.39
45813;BME280;31519;45.408;10.962;2023-05-20T11:31:54;100536.16;;;22.80;61.28
45813;BME280;31519;45.408;10.962;2023-05-20T11:34:23;100538.53;;;23.14;60.55
45813;BME280;31519;45.408;10.962;2023-05-20T11:36:57;100542.78;;;22.86;60.91
45813;BME280;31519;45.408;10.962;2023-05-20T11:39:28;100533.09;;;23.00;60.47
45813;BME280;31519;45.408;10.962;2023-05-20T11:41:57;100535.38;;;22.87;61.29
45813;BME280;31519;45.408;10.962;2023-05-20T11:44:26;100549.00;;;22.94;60.24
45813;BME280;31519;45.408;10.962;2023-05-20T11:46:59;100541.91;;;22.65;60.74
45813;BME280;31519;45.408;10.962;2023-05-20T11:49:28;100537.75;;;23.03;60.15
45813;BME280;31519;45.408;10.962;2023-05-20T11:51:57;100531.13;;;22.86;61.00
45813;BME280;31519;45.408;10.962;2023-05-20T11:54:26;100535.81;;;23.17;59.60
45813;BME280;31519;45.408;10.962;2023-05-20T11:56:54;100552.06;;;22.89;60.42
45813;BME280;31519;45.408;10.962;2023-05-20T11:59:24;100562.97;;;23.10;59.96
45813;BME280;31519;45.408;10.962;2023-05-20T12:01:52;100582.34;;;22.87;60.83
45813;BME280;31519;45.408;10.962;2023-05-20T12:04:20;100586.19;;;22.83;61.19
45813;BME280;31519;45.408;10.962;2023-05-20T12:06:49;100580.41;;;22.81;61.14
45813;BME280;31519;45.408;10.962;2023-05-20T12:09:18;100572.28;;;23.06;60.77
45813;BME280;31519;45.408;10.962;2023-05-20T12:11:46;100558.19;;;22.54;62.68
45813;BME280;31519;45.408;10.962;2023-05-20T12:14:15;100556.72;;;22.81;61.49
45813;BME280;31519;45.408;10.962;2023-05-20T12:16:42;100548.47;;;22.57;63.04
45813;BME280;31519;45.408;10.962;2023-05-20T12:19:11;100567.84;;;22.55;62.71
45813;BME280;31519;45.408;10.962;2023-05-20T12:21:39;100571.47;;;22.77;61.33
45813;BME280;31519;45.408;10.962;2023-05-20T12:24:07;100570.34;;;22.95;61.16
45813;BME280;31519;45.408;10.962;2023-05-20T12:26:35;100575.41;;;23.01;60.88
45813;BME280;31519;45.408;10.962;2023-05-20T12:29:04;100574.22;;;22.98;61.36
45813;BME280;31519;45.408;10.962;2023-05-20T12:31:31;100569.56;;;23.06;61.01
45813;BME280;31519;45.408;10.962;2023-05-20T12:34:02;100579.28;;;22.96;60.87
45813;BME280;31519;45.408;10.962;2023-05-20T12:36:30;100582.34;;;22.84;61.32
45813;BME280;31519;45.408;10.962;2023-05-20T12:38:58;100582.38;;;23.19;60.65
45813;BME280;31519;45.408;10.962;2023-05-20T12:41:26;100579.31;;;23.35;59.89
45813;BME280;31519;45.408;10.962;2023-05-20T12:43:54;100582.00;;;23.21;60.56
45813;BME280;31519;45.408;10.962;2023-05-20T12:46:22;100570.34;;;23.03;60.45
45813;BME280;31519;45.408;10.962;2023-05-20T12:48:51;100564.53;;;23.04;61.04
45813;BME280;31519;45.408;10.962;2023-05-20T12:51:19;100569.19;;;23.11;60.08
45813;BME280;31519;45.408;10.962;2023-05-20T12:53:48;100572.31;;;23.23;59.93
45813;BME280;31519;45.408;10.962;2023-05-20T12:56:16;100575.03;;;23.23;59.83